world map with FAOB marked

FAOB - Airport

This information may not be accurate or current and is not valid for navigation or flight planning. No warranty of fitness for any purpose is made or implied.

flag of Western Capeflag of South Africa

Donate via PayPal

Additional information is available on the NEW Great Circle Mapper

Location
City:  Overberg, Western Cape, South Africa
Name:AFB Overberg
ICAO:FAOB

Details
Type:Airport (Aerodrome, Airfield)
Use:Military
Latitude:34°33'17"S (-34.554860)
Longitude:20°15'02"E (20.250681)
Datum:WGS 1984
Elevation:52 ft (16 m)
Runways:2
Longest:10220 × 151 ft (3115 × 46 m)

Time
Timezone:UTC+2 (DST+4)
Local Time:

Weather
METAR:FAOB  041400Z AUTO 20007KT //// // ////// 25/16 Q1018
TAF:FAOB  (expired)

Related Locations
Nearby:
Farthest:PHHF: 11598 mi / 18666 km
Tern Island [French Frigate Shoals Airport], HI, US

Find:

   beyond  
but within

Other Information
Maps:
Links:
Sources:

  


 


Great Circle Mapper   Great Circle Mapper
Great Circle Mapper FAQ   Great Circle Mapper FAQ
  Karl's Home Page
KLSē   KLSē Home
   GC on Facebook
Airlines of the World   Airlines of the World
Donate via PayPal


Copyright © 2004-2019, Karl L. Swartz. All rights reserved.
All trademarks mentioned herein belong to their respective owners.

Please see credits for attribution and copyright information.

Karl Swartz <karl@kls2.com>
  Powered by FreeBSD
Valid HTML 4.01!
Labeled with ICRA
hCard Microformat
Geo Microformat